Alamo, Nevada Weather observations

Data are for observation ending at time listed.
 Day   Time    Ave.   Ave.  Ave.  Vector   Max.   Stn.    Total    Solar   Ave.  
  of    of     Air    Rel.  Wind   Wind    Wind   Baro.  Precip.   Rad.    Soil  
Year   Day     Temp.  Hum.  Speed  Dir.    Gust   Pres.                    Temp. 
2015   (PST)    F      %     mph   deg.    mph     mb.     in.     W/m2     F   
------------------------------------------------------------------------------
 146    9:30   70.6    44    1.8   206      5.3   896.0    0.00      84    62.5
 146    9:40   71.0    44    2.2   208      5.3   895.9    0.00     125    62.5
 146    9:50   71.9    44    2.6   203      5.8   895.9    0.00     280    62.6
 146   10:00   72.9    41    2.0   175      8.6   895.9    0.00     154    62.7
 146   10:10   73.2    42    2.8   191      7.5   895.8    0.00     101    62.8
 146   10:20   74.4    39    1.3   176      4.6   895.8    0.00     715    62.9
 146   10:30   74.9    37    2.2   174      7.5   895.7    0.00    1017    63.1
 146   10:40   75.5    35    2.2   188      5.9   895.5    0.00    1062    63.5
 146   10:50   76.6    32    2.3   178      7.2   895.4    0.00    1065    64.4
 146   11:00   77.8    30    2.0   163      6.6   895.3    0.00    1073    65.6
 146   11:10   78.3    30    2.2   191      7.9   895.1    0.00    1055    66.4
 146   11:20   78.2    33    2.9   195      7.8   895.0    0.00    1051    67.0
 146   11:30   78.0    32    3.7   192      9.0   894.9    0.00    1065    67.4
 146   11:40   78.3    31    3.5   189      9.4   894.8    0.00    1076    67.6
 146   11:50   79.1    31    2.4   182      9.3   894.7    0.00    1088    68.0
 146   12:00   79.4    31    3.8   184     12.5   894.6    0.00    1107    68.8
 146   12:10   79.9    29    2.4   175      7.7   894.5    0.00    1115    70.0
 146   12:20   78.9    30    3.5   189      8.7   894.3    0.00     612    71.3
 146   12:30   79.8    29    2.6   191      9.6   894.1    0.00    1089    72.1
 146   12:40   80.1    28    2.4   182     12.1   894.0    0.00     570    72.8
 146   12:50   78.7    29    2.3   171      7.2   893.9    0.00     260    73.4
 146   13:00   77.0    30    1.9   182      7.5   893.8    0.00     239    73.4
 146   13:10   77.6    30    2.1   167      6.6   893.6    0.00     577    73.0
 146   13:20   79.9    28    1.9   166      6.9   893.4    0.00     898    72.7
 146   13:30   80.6    27    2.0   164      7.7   893.2    0.00    1059    73.0
 146   13:40   81.0    29    3.5   181      9.0   893.1    0.00    1005    73.8
 146   13:50   81.0    29    2.8   174     11.4   893.1    0.00     988    74.6
 146   14:00   81.3    28    2.2   175      7.5   893.1    0.00     922    75.3
 146   14:10   81.2    28    2.4   171      8.6   893.2    0.00     945    76.0
 146   14:20   81.4    28    3.4   182     11.1   893.2    0.00     948    76.5
 146   14:30   81.6    27    1.8   172      9.6   893.1    0.00     877    77.1
 146   14:40   80.9    28    2.4   182      7.1   892.8    0.00     501    77.6
 146   14:50   81.0    29    2.7   190      7.3   892.7    0.00     882    77.8
 146   15:00   80.2    32    2.1   181      5.9   892.6    0.00     574    77.9
 146   15:10   78.4    28    1.7   160      6.6   892.4    0.00     303    78.1
 146   15:20   78.9    26    2.2   170      7.5   892.3    0.00     191    77.8
 146   15:30   78.2    26    1.9   173      8.2   892.2    0.00     137    77.2
 146   15:40   78.5    25    1.9   166      6.6   892.2    0.00     281    76.5
 146   15:50   79.7    23    2.3   178      7.6   892.2    0.00     323    75.8
 146   16:00   79.0    22    1.6   162      7.3   892.2    0.00     189    75.5
 146   16:10   79.1    21    1.8   162      6.5   892.2    0.00     114    75.0
 146   16:20   78.6    22    1.9   174      8.4   892.2    0.00      91    74.5
 146   16:30   78.6    21    1.6   190      8.0   892.2    0.00      77    74.0
 146   16:40   78.2    23    2.6   228      6.8   892.5    0.00      68    73.5
 146   16:50   75.8    33    7.1   336     16.0   892.8    0.00      40    73.0
 146   17:00   73.7    37    7.0   340     15.4   893.3    0.00      39    72.5
 146   17:10   72.2    41    7.0   345     15.5   893.3    0.00      37    72.0
 146   17:20   71.4    44    7.6   345     15.8   893.1    0.00      45    71.5
 146   17:30   72.4    42    5.7   324     10.8   893.3    0.00     243    71.0
 146   17:40   74.5    40    3.5   301      7.8   893.4    0.00     228    70.6
 146   17:50   75.0    38    3.6   298      8.0   893.6    0.00     186    70.3
 146   18:00   74.7    36    4.3   344      7.8   893.7    0.00     204    70.1
 146   18:10   74.3    35    2.9    54      8.8   893.8    0.00     164    69.9
 146   18:20   73.7    32    4.0    80      9.1   893.8    0.00     119    69.7
 146   18:30   73.6    33    1.4   122      4.2   893.9    0.00      91    69.4
 146   18:40   73.0    36    3.2   311      7.5   894.1    0.00      42    69.1
 146   18:50   70.8    46    2.1   314      6.3   894.1    0.00       8    68.9
 146   19:00   69.3    46    4.6   282     10.8   894.2    0.00       0    68.7
 146   19:10   68.7    47    4.1   302      9.3   894.4    0.00       0    68.5
 146   19:20   68.0    51    4.0   312      9.2   894.6    0.00       0    68.1
 146   19:30   67.7    50    2.8     4      7.7   894.6    0.00       0    67.8
 146   19:40   67.3    50    2.1    24      6.6   894.8    0.00       0    67.5
 146   19:50   66.4    51    3.4    39      5.8   894.9    0.00       0    67.1
 146   20:00   66.2    50    4.5    12      7.6   895.0    0.00       0    66.8
 146   20:10   65.6    52    4.4     8      6.8   895.2    0.00       0    66.4
 146   20:20   64.8    54    3.9    20      7.0   895.3    0.00       0    66.1
 146   20:30   64.3    55    3.4    26      7.0   895.5    0.00       0    65.7
 146   20:40   64.2    56    4.1   355     10.0   895.4    0.00       0    65.4
 146   20:50   63.7    57    2.7    26      6.5   895.4    0.00       0    65.2
 146   21:00   63.2    58    2.5   359      4.5   895.5    0.00       0    64.9
 146   21:10   62.5    60    2.9    26      5.8   895.5    0.00       0    64.7
 146   21:20   61.8    63    2.8   356      5.2   895.5    0.00       0    64.4
 146   21:30   61.3    65    2.0   358      4.3   895.5    0.00       0    64.2
 146   21:40   61.2    65    2.2    14      3.8   895.4    0.00       0    64.0
 146   21:50   60.8    66    1.4    20      3.1   895.5    0.00       0    63.9
 146   22:00   60.4    67    0.9   345      2.0   895.5    0.00       0    63.7
 146   22:10   59.7    68    0.5   283      2.0   895.4    0.00       0    63.5
 146   22:20   58.7    71    0.0     0      0.0   895.4    0.00       0    63.4
 146   22:30   57.9    73    0.0     0      0.0   895.4    0.00       0    63.2
 146   22:40   57.5    75    0.9    11      1.8   895.5    0.00       0    63.0
 146   22:50   57.9    74    1.2   341      2.6   895.5    0.00       0    62.9
 146   23:00   57.6    75    1.3   303      2.3   895.5    0.00       0    62.7
 146   23:10   57.7    75    0.5     2      1.3   895.5    0.00       0    62.6
 146   23:20   57.8    73    0.5    14      1.6   895.5    0.00       0    62.4
 146   23:30   57.5    73    1.5    20      2.8   895.6    0.00       0    62.3
 146   23:40   57.3    74    1.7   356      2.7   895.6    0.00       0    62.1
 146   23:50   57.3    74    1.2   319      2.3   895.6    0.00       0    62.0
 147    0:00   56.5    76    1.1   294      2.6   895.6    0.00       0    61.8
 147    0:10   56.1    76    0.2    32      1.4   895.8    0.00       0    61.7
 147    0:20   56.2    76    1.0    30      1.8   895.8    0.00       0    61.5
 147    0:30   56.3    75    0.8     9      1.8   895.9    0.00       0    61.4
 147    0:40   56.8    73    1.6    13      3.0   895.9    0.00       0    61.2
 147    0:50   57.5    70    2.3    15      4.3   895.9    0.00       0    61.1
 147    1:00   58.0    68    2.3    12      3.8   895.9    0.00       0    60.9
 147    1:10   57.9    69    1.4   353      2.9   896.0    0.00       0    60.8
 147    1:20   57.2    71    0.8   320      2.1   896.0    0.00       0    60.7
 147    1:30   56.2    73    0.2   292      1.2   896.0    0.00       0    60.5
 147    1:40   55.3    76    0.9   304      1.8   896.0    0.00       0    60.4
 147    1:50   54.9    78    0.7   352      1.5   896.1    0.00       0    60.3
 147    2:00   55.4    76    0.8    10      1.4   896.1    0.00       0    60.2
 147    2:10   55.7    75    0.9     2      1.8   896.1    0.00       0    60.1
 147    2:20   55.7    75    0.3   337      1.4   896.2    0.00       0    60.0
 147    2:30   54.8    77    1.0   284      2.2   896.3    0.00       0    59.9
 147    2:40   54.3    80    1.5   286      2.8   896.3    0.00       0    59.8
 147    2:50   54.0    81    0.5   333      1.6   896.3    0.00       0    59.7
 147    3:00   54.0    81    1.4     1      2.8   896.3    0.00       0    59.6
 147    3:10   53.3    82    1.3    16      1.8   896.4    0.00       0    59.4
 147    3:20   52.8    83    0.3    22      1.9   896.4    0.00       0    59.3
 147    3:30   52.5    84    0.9    74      2.6   896.4    0.00       0    59.1
 147    3:40   52.4    84    0.2   341      0.9   896.5    0.00       0    59.0
 147    3:50   52.5    84    1.0    22      1.8   896.5    0.00       0    58.9
 147    4:00   52.6    83    1.3    55      2.2   896.5    0.00       0    58.8
 147    4:10   52.3    83    1.1   280      2.2   896.6    0.00       0    58.7
 147    4:20   51.9    84    0.6   284      2.2   896.7    0.00       0    58.6
 147    4:30   51.7    84    0.5   328      1.8   896.8    0.00       0    58.5
 147    4:40   51.2    85    0.1   357      0.8   896.9    0.00       7    58.4
 147    4:50   51.1    86    0.1    10      0.7   897.0    0.00      14    58.2
 147    5:00   50.9    87    0.3    50      1.2   897.0    0.00      14    58.2
 147    5:10   50.8    87    0.2    31      1.2   897.1    0.00      28    58.1
 147    5:20   52.3    86    0.1    13      0.7   897.2    0.00      93    58.0
 147    5:30   55.0    80    0.3    21      1.2   897.2    0.00     124    58.0
 147    5:40   56.6    76    0.9    38      2.3   897.3    0.00     153    58.1
 147    5:50   56.9    73    1.7    28      2.6   897.3    0.00     188    58.2
 147    6:00   57.2    72    2.7     9      5.0   897.3    0.00     219    58.4
 147    6:10   57.8    72    3.0   358      4.5   897.3    0.00     252    58.7
 147    6:20   59.0    69    2.7   356      4.4   897.3    0.00     249    59.0
 147    6:30   60.0    69    2.1    18      4.1   897.4    0.00     112    59.4
 147    6:40   60.7    66    2.6    10      4.3   897.4    0.00      59    59.9
 147    6:50   60.9    67    3.1     9      4.8   897.4    0.00     106    60.4
 147    7:00   62.0    64    2.7     2      5.0   897.3    0.00     245    60.9
 147    7:10   62.8    62    2.2   355      3.4   897.3    0.00     456    61.3
 147    7:20   63.3    59    1.8     0      3.5   897.3    0.00     477    61.5
 147    7:30   64.5    56    1.4   340      4.2   897.2    0.00     140    61.6
 147    7:40   65.5    54    1.4   337      3.5   897.1    0.00     340    61.5
 147    7:50   66.7    52    1.5   306      3.9   897.1    0.00      78    61.4
 147    8:00   67.5    47    2.7   358      5.5   897.0    0.00      73    61.3
 147    8:10   68.0    45    2.3     4      4.7   897.0    0.00      63    61.3
 147    8:20   69.1    43    2.3    22      4.2   897.0    0.00      51    61.2
 147    8:30   70.3    41    2.3   348      5.3   896.9    0.00      51    61.2
 147    8:40   70.5    39    1.7    36      3.4   896.8    0.00      54    61.1
 147    8:50   71.2    38    0.9    74      2.5   896.7    0.00      64    61.2
 147    9:00   72.0    34    1.3   201      3.7   896.6    0.00      63    61.2
 147    9:10   72.2    32    2.2   202      5.5   896.5    0.00     115    61.2
 147    9:20   72.7    29    2.6   197      5.8   896.5    0.00     178    61.3

Return to Alamo, Nevada graphs page.


Western Regional Climate Center,wrcc@dri.edu